EST,Max TemperatureF,Mean TemperatureF,Min TemperatureF,Max Dew PointF,MeanDew PointF,Min DewpointF,Max Humidity, Mean Humidity, Min Humidity, Max Sea Level PressureIn, Mean Sea Level PressureIn, Min Sea Level PressureIn, Max VisibilityMiles, Mean VisibilityMiles, Min VisibilityMiles, Max Wind SpeedMPH, Mean Wind SpeedMPH, Max Gust SpeedMPH,PrecipitationIn, CloudCover, Events, WindDirDegrees
2013-1-1,80,76,72,65,62,56,73,63,53,30.16,30.10,30.04,10,10,10,12,6,17,0.00,3,,122
2013-1-2,82,76,70,68,66,65,84,73,62,30.09,30.05,30.01,10,10,9,8,2,12,0.01,3,,135
2013-1-3,82,76,69,70,68,64,87,78,69,30.13,30.08,30.04,10,10,10,7,3,10,0.00,1,,111
2013-1-4,83,78,72,72,70,68,90,78,65,30.21,30.16,30.11,10,9,2,9,4,13,0.08,3,Rain,80
2013-1-5,81,76,71,72,69,67,93,78,62,30.22,30.19,30.13,10,9,4,15,8,18,0.02,3,Rain,58
2013-1-6,84,79,74,70,69,68,82,74,65,30.15,30.10,30.05,10,10,10,12,6,20,0.00,2,,121
2013-1-7,82,78,75,69,67,65,82,70,58,30.14,30.09,30.06,10,10,10,13,5,,0.00,0,,91
2013-1-8,83,78,73,70,69,67,84,73,62,30.17,30.10,30.05,10,10,10,14,8,22,T,2,,90
2013-1-9,83,80,77,70,69,68,76,70,63,30.23,30.17,30.12,10,10,9,16,11,23,0.00,3,,107
2013-1-10,82,79,76,68,66,63,74,66,58,30.26,30.21,30.14,10,10,10,16,11,25,T,2,,93
2013-1-11,83,78,73,67,63,58,74,60,45,30.22,30.16,30.13,10,10,10,17,10,23,0.00,0,,96
2013-1-12,83,79,74,67,65,63,74,65,55,30.15,30.11,30.07,10,10,10,14,8,20,0.00,1,,94
2013-1-13,82,78,74,67,62,57,74,63,51,30.11,30.08,30.04,10,10,10,15,9,25,0.01,4,Rain,105
2013-1-14,82,78,74,63,60,57,64,58,51,30.15,30.12,30.09,10,10,10,13,8,20,0.00,2,,108
2013-1-15,82,78,74,65,63,61,69,60,51,30.12,30.08,30.04,10,10,10,13,8,18,T,2,,102
2013-1-16,83,78,73,68,66,62,74,65,55,30.10,30.04,30.01,10,10,10,10,5,16,0.00,3,,115
2013-1-17,79,74,68,68,65,57,84,74,64,30.13,30.07,30.01,10,8,2,21,8,32,0.42,7,Rain,279
2013-1-18,69,65,60,56,52,48,73,67,60,30.24,30.18,30.13,10,10,10,17,8,29,0.00,6,,7
2013-1-19,75,70,65,65,59,53,81,71,60,30.21,30.14,30.10,10,10,10,9,4,13,0.00,6,,351
2013-1-20,77,73,69,67,65,63,84,77,69,30.15,30.08,30.03,10,10,10,9,5,12,0.00,5,,15
2013-1-21,80,75,70,68,65,61,84,76,67,30.09,30.04,30.01,10,10,10,13,6,20,0.00,4,,319
2013-1-22,76,72,67,61,59,55,76,67,57,30.19,30.10,30.04,10,10,10,17,10,24,0.00,2,,349
2013-1-23,75,71,66,58,56,53,73,61,49,30.26,30.22,30.17,10,10,10,18,13,23,0.00,0,,39
2013-1-24,75,70,65,59,56,54,73,61,49,30.29,30.23,30.19,10,10,10,18,11,25,0.00,1,,31
2013-1-25,77,72,66,60,55,52,73,58,43,30.27,30.21,30.17,10,10,10,16,10,21,0.00,1,,43
2013-1-26,77,72,67,64,61,57,84,69,54,30.23,30.19,30.15,10,10,10,17,10,22,0.00,2,,40
2013-1-27,80,76,71,66,64,61,84,71,58,30.24,30.21,30.16,10,10,8,20,11,28,0.00,5,,65
2013-1-28,81,78,74,64,63,61,69,62,54,30.28,30.23,30.19,10,10,10,15,10,23,0.00,4,,95
2013-1-29,82,78,74,68,65,63,74,66,58,30.21,30.16,30.11,10,10,6,14,9,23,T,3,Rain,115
2013-1-30,81,78,74,69,65,62,79,69,58,30.09,30.04,29.97,10,10,10,15,9,24,0.00,2,,140
2013-1-31,80,74,68,70,63,52,87,76,64,30.17,30.08,29.98,10,10,7,17,8,25,T,4,Rain,332